sensor_id;sensor_type;location;lat;lon;timestamp;P1;durP1;ratioP1;P2;durP2;ratioP2
62941;SDS011;49042;47.318;19.874;2024-02-26T00:01:38;16.90;;;9.57;;
62941;SDS011;49042;47.318;19.874;2024-02-26T00:04:40;14.27;;;9.52;;
62941;SDS011;49042;47.318;19.874;2024-02-26T00:07:42;18.33;;;10.63;;
62941;SDS011;49042;47.318;19.874;2024-02-26T00:10:44;15.93;;;10.45;;
62941;SDS011;49042;47.318;19.874;2024-02-26T00:13:45;14.38;;;9.00;;
62941;SDS011;49042;47.318;19.874;2024-02-26T00:16:47;13.30;;;9.32;;
62941;SDS011;49042;47.318;19.874;2024-02-26T00:19:49;11.50;;;7.68;;
62941;SDS011;49042;47.318;19.874;2024-02-26T00:22:51;12.30;;;9.07;;
62941;SDS011;49042;47.318;19.874;2024-02-26T00:25:53;11.88;;;8.38;;
62941;SDS011;49042;47.318;19.874;2024-02-26T00:28:55;18.80;;;9.10;;
62941;SDS011;49042;47.318;19.874;2024-02-26T00:31:56;16.58;;;9.48;;
62941;SDS011;49042;47.318;19.874;2024-02-26T00:34:58;13.90;;;9.10;;
62941;SDS011;49042;47.318;19.874;2024-02-26T00:38:00;11.68;;;8.30;;
62941;SDS011;49042;47.318;19.874;2024-02-26T00:41:03;17.40;;;8.70;;
62941;SDS011;49042;47.318;19.874;2024-02-26T00:44:05;11.80;;;8.05;;
62941;SDS011;49042;47.318;19.874;2024-02-26T00:47:06;10.77;;;8.20;;
62941;SDS011;49042;47.318;19.874;2024-02-26T00:50:08;16.30;;;8.90;;
62941;SDS011;49042;47.318;19.874;2024-02-26T00:53:11;15.18;;;8.43;;
62941;SDS011;49042;47.318;19.874;2024-02-26T00:56:13;14.75;;;8.93;;
62941;SDS011;49042;47.318;19.874;2024-02-26T00:59:14;11.65;;;7.65;;
62941;SDS011;49042;47.318;19.874;2024-02-26T01:02:16;14.48;;;8.32;;
62941;SDS011;49042;47.318;19.874;2024-02-26T01:05:18;12.95;;;8.45;;
62941;SDS011;49042;47.318;19.874;2024-02-26T01:08:20;12.60;;;7.95;;
62941;SDS011;49042;47.318;19.874;2024-02-26T01:11:22;15.88;;;9.40;;
62941;SDS011;49042;47.318;19.874;2024-02-26T01:14:23;14.25;;;8.77;;
62941;SDS011;49042;47.318;19.874;2024-02-26T01:17:25;15.25;;;8.40;;
62941;SDS011;49042;47.318;19.874;2024-02-26T01:20:27;15.02;;;8.90;;
62941;SDS011;49042;47.318;19.874;2024-02-26T01:23:29;12.68;;;8.85;;
62941;SDS011;49042;47.318;19.874;2024-02-26T01:26:31;21.98;;;9.57;;
62941;SDS011;49042;47.318;19.874;2024-02-26T01:29:32;11.75;;;8.45;;
62941;SDS011;49042;47.318;19.874;2024-02-26T01:32:34;13.57;;;8.50;;
62941;SDS011;49042;47.318;19.874;2024-02-26T01:35:37;15.10;;;9.35;;
62941;SDS011;49042;47.318;19.874;2024-02-26T01:38:39;14.82;;;9.15;;
62941;SDS011;49042;47.318;19.874;2024-02-26T01:41:41;14.63;;;8.55;;
62941;SDS011;49042;47.318;19.874;2024-02-26T01:44:43;19.08;;;10.02;;
62941;SDS011;49042;47.318;19.874;2024-02-26T01:47:45;16.42;;;10.10;;
62941;SDS011;49042;47.318;19.874;2024-02-26T01:50:47;14.10;;;9.60;;
62941;SDS011;49042;47.318;19.874;2024-02-26T01:53:49;18.33;;;10.95;;
62941;SDS011;49042;47.318;19.874;2024-02-26T01:56:51;15.13;;;10.52;;
62941;SDS011;49042;47.318;19.874;2024-02-26T01:59:54;15.45;;;10.65;;
62941;SDS011;49042;47.318;19.874;2024-02-26T02:02:57;16.65;;;10.95;;
62941;SDS011;49042;47.318;19.874;2024-02-26T02:05:58;16.12;;;10.68;;
62941;SDS011;49042;47.318;19.874;2024-02-26T02:09:00;15.55;;;11.02;;
62941;SDS011;49042;47.318;19.874;2024-02-26T02:12:07;18.12;;;11.43;;
62941;SDS011;49042;47.318;19.874;2024-02-26T02:15:09;17.55;;;10.77;;
62941;SDS011;49042;47.318;19.874;2024-02-26T02:18:11;21.60;;;13.62;;
62941;SDS011;49042;47.318;19.874;2024-02-26T02:21:13;16.80;;;10.88;;
62941;SDS011;49042;47.318;19.874;2024-02-26T02:24:15;18.50;;;12.48;;
62941;SDS011;49042;47.318;19.874;2024-02-26T02:27:17;16.62;;;11.27;;
62941;SDS011;49042;47.318;19.874;2024-02-26T02:30:19;17.15;;;10.65;;
62941;SDS011;49042;47.318;19.874;2024-02-26T02:33:26;19.45;;;11.70;;
62941;SDS011;49042;47.318;19.874;2024-02-26T02:36:28;19.00;;;11.35;;
62941;SDS011;49042;47.318;19.874;2024-02-26T02:39:30;18.10;;;11.48;;
62941;SDS011;49042;47.318;19.874;2024-02-26T02:42:32;18.33;;;10.90;;
62941;SDS011;49042;47.318;19.874;2024-02-26T02:45:33;18.17;;;11.05;;
62941;SDS011;49042;47.318;19.874;2024-02-26T02:48:35;21.00;;;13.40;;
62941;SDS011;49042;47.318;19.874;2024-02-26T02:51:37;28.50;;;13.90;;
62941;SDS011;49042;47.318;19.874;2024-02-26T02:54:39;27.92;;;14.98;;
62941;SDS011;49042;47.318;19.874;2024-02-26T02:57:43;21.33;;;13.23;;
62941;SDS011;49042;47.318;19.874;2024-02-26T03:00:46;29.65;;;13.52;;
62941;SDS011;49042;47.318;19.874;2024-02-26T03:03:47;19.50;;;12.73;;
62941;SDS011;49042;47.318;19.874;2024-02-26T03:06:49;17.48;;;11.32;;
62941;SDS011;49042;47.318;19.874;2024-02-26T03:09:51;18.98;;;11.48;;
62941;SDS011;49042;47.318;19.874;2024-02-26T03:12:53;15.77;;;10.57;;
62941;SDS011;49042;47.318;19.874;2024-02-26T03:15:55;21.35;;;13.18;;
62941;SDS011;49042;47.318;19.874;2024-02-26T03:18:57;21.87;;;12.85;;
62941;SDS011;49042;47.318;19.874;2024-02-26T03:21:59;22.67;;;13.05;;
62941;SDS011;49042;47.318;19.874;2024-02-26T03:25:00;23.50;;;13.55;;
62941;SDS011;49042;47.318;19.874;2024-02-26T03:28:02;23.62;;;13.55;;
62941;SDS011;49042;47.318;19.874;2024-02-26T03:31:04;22.10;;;13.43;;
62941;SDS011;49042;47.318;19.874;2024-02-26T03:34:06;16.87;;;12.07;;
62941;SDS011;49042;47.318;19.874;2024-02-26T03:37:08;20.48;;;12.73;;
62941;SDS011;49042;47.318;19.874;2024-02-26T03:40:12;26.55;;;14.52;;
62941;SDS011;49042;47.318;19.874;2024-02-26T03:43:16;20.90;;;13.32;;
62941;SDS011;49042;47.318;19.874;2024-02-26T03:46:18;24.40;;;14.25;;
62941;SDS011;49042;47.318;19.874;2024-02-26T03:49:20;19.95;;;12.00;;
62941;SDS011;49042;47.318;19.874;2024-02-26T03:52:21;24.55;;;15.05;;
62941;SDS011;49042;47.318;19.874;2024-02-26T03:55:23;28.60;;;13.60;;
62941;SDS011;49042;47.318;19.874;2024-02-26T03:58:26;21.62;;;13.45;;
62941;SDS011;49042;47.318;19.874;2024-02-26T04:01:28;25.17;;;12.65;;
62941;SDS011;49042;47.318;19.874;2024-02-26T04:04:30;20.37;;;12.93;;
62941;SDS011;49042;47.318;19.874;2024-02-26T04:07:35;19.95;;;12.90;;
62941;SDS011;49042;47.318;19.874;2024-02-26T04:10:37;24.45;;;14.13;;
62941;SDS011;49042;47.318;19.874;2024-02-26T04:13:40;34.45;;;16.48;;
62941;SDS011;49042;47.318;19.874;2024-02-26T04:16:42;25.75;;;14.25;;
62941;SDS011;49042;47.318;19.874;2024-02-26T04:19:43;19.10;;;12.98;;
62941;SDS011;49042;47.318;19.874;2024-02-26T04:22:45;17.05;;;11.73;;
62941;SDS011;49042;47.318;19.874;2024-02-26T04:25:47;22.87;;;12.20;;
62941;SDS011;49042;47.318;19.874;2024-02-26T04:28:49;19.52;;;12.13;;
62941;SDS011;49042;47.318;19.874;2024-02-26T04:31:51;21.98;;;13.75;;
62941;SDS011;49042;47.318;19.874;2024-02-26T04:34:52;21.92;;;12.93;;
62941;SDS011;49042;47.318;19.874;2024-02-26T04:37:55;25.30;;;12.05;;
62941;SDS011;49042;47.318;19.874;2024-02-26T04:40:57;18.90;;;12.10;;
62941;SDS011;49042;47.318;19.874;2024-02-26T04:43:59;18.55;;;12.20;;
62941;SDS011;49042;47.318;19.874;2024-02-26T04:47:00;17.92;;;12.63;;
62941;SDS011;49042;47.318;19.874;2024-02-26T04:50:03;18.52;;;13.27;;
62941;SDS011;49042;47.318;19.874;2024-02-26T04:53:05;18.42;;;12.10;;
62941;SDS011;49042;47.318;19.874;2024-02-26T04:56:07;21.50;;;13.30;;
62941;SDS011;49042;47.318;19.874;2024-02-26T04:59:09;21.83;;;14.40;;
62941;SDS011;49042;47.318;19.874;2024-02-26T05:02:11;21.70;;;14.10;;
62941;SDS011;49042;47.318;19.874;2024-02-26T05:05:13;21.45;;;14.35;;
62941;SDS011;49042;47.318;19.874;2024-02-26T05:08:15;22.35;;;14.18;;
62941;SDS011;49042;47.318;19.874;2024-02-26T05:11:17;19.75;;;14.27;;
62941;SDS011;49042;47.318;19.874;2024-02-26T05:14:19;24.30;;;14.95;;
62941;SDS011;49042;47.318;19.874;2024-02-26T05:17:21;21.62;;;14.60;;
62941;SDS011;49042;47.318;19.874;2024-02-26T05:20:26;21.37;;;15.00;;
62941;SDS011;49042;47.318;19.874;2024-02-26T05:23:28;26.48;;;15.77;;
62941;SDS011;49042;47.318;19.874;2024-02-26T05:26:30;27.23;;;16.85;;
62941;SDS011;49042;47.318;19.874;2024-02-26T05:29:32;32.15;;;19.83;;
62941;SDS011;49042;47.318;19.874;2024-02-26T05:32:33;31.15;;;18.10;;
62941;SDS011;49042;47.318;19.874;2024-02-26T05:35:35;28.92;;;18.37;;
62941;SDS011;49042;47.318;19.874;2024-02-26T05:38:37;25.15;;;15.73;;
62941;SDS011;49042;47.318;19.874;2024-02-26T05:41:38;24.23;;;15.75;;
62941;SDS011;49042;47.318;19.874;2024-02-26T05:44:40;24.02;;;16.52;;
62941;SDS011;49042;47.318;19.874;2024-02-26T05:47:42;23.65;;;15.60;;
62941;SDS011;49042;47.318;19.874;2024-02-26T05:50:47;27.90;;;15.90;;
62941;SDS011;49042;47.318;19.874;2024-02-26T05:53:49;28.65;;;15.63;;
62941;SDS011;49042;47.318;19.874;2024-02-26T05:56:56;28.77;;;16.58;;
62941;SDS011;49042;47.318;19.874;2024-02-26T05:59:58;28.83;;;15.43;;
62941;SDS011;49042;47.318;19.874;2024-02-26T06:03:04;22.87;;;16.23;;
62941;SDS011;49042;47.318;19.874;2024-02-26T06:06:06;28.02;;;16.45;;
62941;SDS011;49042;47.318;19.874;2024-02-26T06:09:08;27.60;;;15.75;;
62941;SDS011;49042;47.318;19.874;2024-02-26T06:12:10;25.27;;;16.02;;
62941;SDS011;49042;47.318;19.874;2024-02-26T06:15:12;25.67;;;15.70;;
62941;SDS011;49042;47.318;19.874;2024-02-26T06:18:14;27.20;;;16.37;;
62941;SDS011;49042;47.318;19.874;2024-02-26T06:21:15;26.55;;;15.63;;
62941;SDS011;49042;47.318;19.874;2024-02-26T06:24:17;24.42;;;15.68;;
62941;SDS011;49042;47.318;19.874;2024-02-26T06:27:19;26.35;;;15.52;;
62941;SDS011;49042;47.318;19.874;2024-02-26T06:30:23;25.55;;;16.02;;
62941;SDS011;49042;47.318;19.874;2024-02-26T06:33:25;22.17;;;14.63;;
62941;SDS011;49042;47.318;19.874;2024-02-26T06:36:27;22.60;;;14.77;;
62941;SDS011;49042;47.318;19.874;2024-02-26T06:39:28;21.90;;;15.23;;
62941;SDS011;49042;47.318;19.874;2024-02-26T06:42:30;22.98;;;15.23;;
62941;SDS011;49042;47.318;19.874;2024-02-26T06:45:32;26.40;;;15.25;;
62941;SDS011;49042;47.318;19.874;2024-02-26T06:48:34;25.15;;;16.48;;
62941;SDS011;49042;47.318;19.874;2024-02-26T06:51:38;29.27;;;15.85;;
62941;SDS011;49042;47.318;19.874;2024-02-26T06:54:40;20.73;;;14.18;;
62941;SDS011;49042;47.318;19.874;2024-02-26T06:57:42;23.92;;;15.00;;
62941;SDS011;49042;47.318;19.874;2024-02-26T07:00:44;19.33;;;13.75;;
62941;SDS011;49042;47.318;19.874;2024-02-26T07:03:47;21.37;;;13.90;;
62941;SDS011;49042;47.318;19.874;2024-02-26T07:06:49;20.40;;;13.50;;
62941;SDS011;49042;47.318;19.874;2024-02-26T07:09:51;23.08;;;14.52;;
62941;SDS011;49042;47.318;19.874;2024-02-26T07:12:53;20.60;;;12.85;;
62941;SDS011;49042;47.318;19.874;2024-02-26T07:15:55;18.80;;;12.45;;
62941;SDS011;49042;47.318;19.874;2024-02-26T07:18:57;21.45;;;13.88;;
62941;SDS011;49042;47.318;19.874;2024-02-26T07:21:58;18.12;;;12.18;;
62941;SDS011;49042;47.318;19.874;2024-02-26T07:25:02;18.42;;;12.13;;
62941;SDS011;49042;47.318;19.874;2024-02-26T07:28:04;15.23;;;11.43;;
62941;SDS011;49042;47.318;19.874;2024-02-26T07:31:06;21.02;;;11.25;;
62941;SDS011;49042;47.318;19.874;2024-02-26T07:34:08;21.40;;;11.30;;
62941;SDS011;49042;47.318;19.874;2024-02-26T07:37:10;15.88;;;11.63;;
62941;SDS011;49042;47.318;19.874;2024-02-26T07:40:12;13.90;;;10.63;;
62941;SDS011;49042;47.318;19.874;2024-02-26T07:43:14;13.60;;;10.18;;
62941;SDS011;49042;47.318;19.874;2024-02-26T07:46:16;17.40;;;11.35;;
62941;SDS011;49042;47.318;19.874;2024-02-26T07:49:18;16.08;;;10.70;;
62941;SDS011;49042;47.318;19.874;2024-02-26T07:52:20;17.40;;;11.27;;
62941;SDS011;49042;47.318;19.874;2024-02-26T07:55:22;19.87;;;11.25;;
62941;SDS011;49042;47.318;19.874;2024-02-26T07:58:24;15.15;;;11.02;;
62941;SDS011;49042;47.318;19.874;2024-02-26T08:01:26;20.25;;;11.73;;
62941;SDS011;49042;47.318;19.874;2024-02-26T08:04:27;21.37;;;14.60;;
62941;SDS011;49042;47.318;19.874;2024-02-26T08:07:29;18.70;;;13.10;;
62941;SDS011;49042;47.318;19.874;2024-02-26T08:10:32;17.62;;;12.07;;
62941;SDS011;49042;47.318;19.874;2024-02-26T08:13:34;19.55;;;11.63;;
62941;SDS011;49042;47.318;19.874;2024-02-26T08:16:35;20.48;;;12.88;;
62941;SDS011;49042;47.318;19.874;2024-02-26T08:19:37;22.62;;;13.10;;
62941;SDS011;49042;47.318;19.874;2024-02-26T08:22:39;20.67;;;12.75;;
62941;SDS011;49042;47.318;19.874;2024-02-26T08:25:41;21.77;;;13.13;;
62941;SDS011;49042;47.318;19.874;2024-02-26T08:28:43;18.92;;;11.82;;
62941;SDS011;49042;47.318;19.874;2024-02-26T08:31:45;16.92;;;11.95;;
62941;SDS011;49042;47.318;19.874;2024-02-26T08:34:47;20.17;;;13.75;;
62941;SDS011;49042;47.318;19.874;2024-02-26T08:37:49;39.50;;;18.60;;
62941;SDS011;49042;47.318;19.874;2024-02-26T08:40:51;22.45;;;13.45;;
62941;SDS011;49042;47.318;19.874;2024-02-26T08:43:53;24.33;;;13.85;;
62941;SDS011;49042;47.318;19.874;2024-02-26T08:46:54;22.02;;;13.40;;
62941;SDS011;49042;47.318;19.874;2024-02-26T08:49:56;19.92;;;12.55;;
62941;SDS011;49042;47.318;19.874;2024-02-26T08:52:58;18.60;;;13.38;;
62941;SDS011;49042;47.318;19.874;2024-02-26T08:56:00;16.17;;;11.45;;
62941;SDS011;49042;47.318;19.874;2024-02-26T08:59:02;21.70;;;11.75;;
62941;SDS011;49042;47.318;19.874;2024-02-26T09:02:05;19.12;;;12.23;;
62941;SDS011;49042;47.318;19.874;2024-02-26T09:05:07;24.40;;;13.20;;
62941;SDS011;49042;47.318;19.874;2024-02-26T09:08:09;19.35;;;12.23;;
62941;SDS011;49042;47.318;19.874;2024-02-26T09:11:10;20.15;;;12.98;;
62941;SDS011;49042;47.318;19.874;2024-02-26T09:14:12;17.92;;;11.85;;
62941;SDS011;49042;47.318;19.874;2024-02-26T09:17:14;16.65;;;11.12;;
62941;SDS011;49042;47.318;19.874;2024-02-26T09:20:16;19.58;;;11.63;;
62941;SDS011;49042;47.318;19.874;2024-02-26T09:23:21;16.80;;;11.82;;
62941;SDS011;49042;47.318;19.874;2024-02-26T09:26:23;20.67;;;11.10;;
62941;SDS011;49042;47.318;19.874;2024-02-26T09:29:24;15.50;;;11.57;;
62941;SDS011;49042;47.318;19.874;2024-02-26T09:32:27;29.17;;;12.07;;
62941;SDS011;49042;47.318;19.874;2024-02-26T09:35:29;16.23;;;10.50;;
62941;SDS011;49042;47.318;19.874;2024-02-26T09:38:31;15.55;;;10.98;;
62941;SDS011;49042;47.318;19.874;2024-02-26T09:41:52;19.08;;;10.85;;
62941;SDS011;49042;47.318;19.874;2024-02-26T09:44:54;23.42;;;10.25;;
62941;SDS011;49042;47.318;19.874;2024-02-26T09:47:57;26.48;;;11.23;;
62941;SDS011;49042;47.318;19.874;2024-02-26T09:51:00;18.90;;;10.55;;
62941;SDS011;49042;47.318;19.874;2024-02-26T09:54:04;19.00;;;10.25;;
62941;SDS011;49042;47.318;19.874;2024-02-26T09:57:09;20.42;;;11.32;;
62941;SDS011;49042;47.318;19.874;2024-02-26T10:00:17;17.23;;;12.23;;
62941;SDS011;49042;47.318;19.874;2024-02-26T10:03:23;23.30;;;11.52;;
62941;SDS011;49042;47.318;19.874;2024-02-26T10:06:29;20.23;;;12.10;;
62941;SDS011;49042;47.318;19.874;2024-02-26T10:09:32;22.17;;;10.85;;
62941;SDS011;49042;47.318;19.874;2024-02-26T10:12:33;14.70;;;10.60;;
62941;SDS011;49042;47.318;19.874;2024-02-26T10:15:36;18.27;;;11.65;;
62941;SDS011;49042;47.318;19.874;2024-02-26T10:18:47;17.40;;;11.50;;
62941;SDS011;49042;47.318;19.874;2024-02-26T10:21:56;24.90;;;11.63;;
62941;SDS011;49042;47.318;19.874;2024-02-26T10:25:01;18.87;;;11.27;;
62941;SDS011;49042;47.318;19.874;2024-02-26T10:28:05;19.37;;;11.65;;
62941;SDS011;49042;47.318;19.874;2024-02-26T10:31:08;18.02;;;11.35;;
62941;SDS011;49042;47.318;19.874;2024-02-26T10:34:10;16.67;;;11.45;;
62941;SDS011;49042;47.318;19.874;2024-02-26T10:37:12;23.25;;;12.90;;
62941;SDS011;49042;47.318;19.874;2024-02-26T10:40:16;16.25;;;12.00;;
62941;SDS011;49042;47.318;19.874;2024-02-26T10:43:18;18.05;;;12.25;;
62941;SDS011;49042;47.318;19.874;2024-02-26T10:46:20;29.45;;;12.75;;
62941;SDS011;49042;47.318;19.874;2024-02-26T10:49:21;17.58;;;12.93;;
62941;SDS011;49042;47.318;19.874;2024-02-26T10:52:25;17.30;;;11.60;;
62941;SDS011;49042;47.318;19.874;2024-02-26T10:55:28;16.45;;;10.85;;
62941;SDS011;49042;47.318;19.874;2024-02-26T10:58:31;17.70;;;11.75;;
62941;SDS011;49042;47.318;19.874;2024-02-26T11:01:33;18.52;;;11.38;;
62941;SDS011;49042;47.318;19.874;2024-02-26T11:04:39;18.02;;;11.55;;
62941;SDS011;49042;47.318;19.874;2024-02-26T11:07:41;22.87;;;10.90;;
62941;SDS011;49042;47.318;19.874;2024-02-26T11:10:43;17.45;;;9.90;;
62941;SDS011;49042;47.318;19.874;2024-02-26T11:13:49;15.27;;;10.15;;
62941;SDS011;49042;47.318;19.874;2024-02-26T11:16:52;18.15;;;11.00;;
62941;SDS011;49042;47.318;19.874;2024-02-26T11:19:57;21.62;;;13.38;;
62941;SDS011;49042;47.318;19.874;2024-02-26T11:23:00;16.20;;;10.55;;
62941;SDS011;49042;47.318;19.874;2024-02-26T11:26:02;20.30;;;9.82;;
62941;SDS011;49042;47.318;19.874;2024-02-26T11:29:07;16.67;;;10.15;;
62941;SDS011;49042;47.318;19.874;2024-02-26T11:32:11;14.40;;;9.80;;
62941;SDS011;49042;47.318;19.874;2024-02-26T11:35:14;23.30;;;9.98;;
62941;SDS011;49042;47.318;19.874;2024-02-26T11:38:21;16.52;;;11.40;;
62941;SDS011;49042;47.318;19.874;2024-02-26T11:41:25;21.62;;;10.23;;
62941;SDS011;49042;47.318;19.874;2024-02-26T11:44:29;24.30;;;11.30;;
62941;SDS011;49042;47.318;19.874;2024-02-26T11:47:31;15.02;;;10.20;;
62941;SDS011;49042;47.318;19.874;2024-02-26T11:50:38;11.55;;;9.65;;
62941;SDS011;49042;47.318;19.874;2024-02-26T11:53:47;14.60;;;10.07;;
62941;SDS011;49042;47.318;19.874;2024-02-26T11:56:50;15.30;;;10.50;;
62941;SDS011;49042;47.318;19.874;2024-02-26T11:59:52;16.67;;;10.63;;
62941;SDS011;49042;47.318;19.874;2024-02-26T12:02:55;14.65;;;10.50;;
62941;SDS011;49042;47.318;19.874;2024-02-26T12:06:02;32.20;;;17.42;;
62941;SDS011;49042;47.318;19.874;2024-02-26T12:09:05;22.23;;;12.18;;
62941;SDS011;49042;47.318;19.874;2024-02-26T12:12:08;15.48;;;11.15;;
62941;SDS011;49042;47.318;19.874;2024-02-26T12:15:11;20.83;;;11.70;;
62941;SDS011;49042;47.318;19.874;2024-02-26T12:18:17;20.12;;;13.43;;
62941;SDS011;49042;47.318;19.874;2024-02-26T12:21:20;12.82;;;10.55;;
62941;SDS011;49042;47.318;19.874;2024-02-26T12:24:22;14.15;;;10.27;;
62941;SDS011;49042;47.318;19.874;2024-02-26T12:27:23;14.05;;;10.02;;
62941;SDS011;49042;47.318;19.874;2024-02-26T12:30:26;18.70;;;11.12;;
62941;SDS011;49042;47.318;19.874;2024-02-26T12:33:31;19.58;;;9.88;;
62941;SDS011;49042;47.318;19.874;2024-02-26T12:36:33;16.10;;;10.90;;
62941;SDS011;49042;47.318;19.874;2024-02-26T12:39:40;15.68;;;10.77;;
62941;SDS011;49042;47.318;19.874;2024-02-26T12:42:42;23.45;;;10.95;;
62941;SDS011;49042;47.318;19.874;2024-02-26T12:45:43;34.50;;;11.90;;
62941;SDS011;49042;47.318;19.874;2024-02-26T12:48:49;18.85;;;11.02;;
62941;SDS011;49042;47.318;19.874;2024-02-26T12:51:51;15.80;;;10.20;;
62941;SDS011;49042;47.318;19.874;2024-02-26T12:54:53;20.75;;;11.68;;
62941;SDS011;49042;47.318;19.874;2024-02-26T12:57:55;16.45;;;11.73;;
62941;SDS011;49042;47.318;19.874;2024-02-26T13:00:57;14.50;;;11.10;;
62941;SDS011;49042;47.318;19.874;2024-02-26T13:03:59;14.87;;;12.43;;
62941;SDS011;49042;47.318;19.874;2024-02-26T13:07:07;17.83;;;12.27;;
62941;SDS011;49042;47.318;19.874;2024-02-26T13:10:10;23.02;;;13.15;;
62941;SDS011;49042;47.318;19.874;2024-02-26T13:13:16;28.45;;;13.57;;
62941;SDS011;49042;47.318;19.874;2024-02-26T13:16:19;19.90;;;12.32;;
62941;SDS011;49042;47.318;19.874;2024-02-26T13:19:20;18.92;;;12.45;;
62941;SDS011;49042;47.318;19.874;2024-02-26T13:22:22;20.48;;;12.32;;
62941;SDS011;49042;47.318;19.874;2024-02-26T13:25:25;21.52;;;13.38;;
62941;SDS011;49042;47.318;19.874;2024-02-26T13:28:27;17.62;;;13.38;;
62941;SDS011;49042;47.318;19.874;2024-02-26T13:31:29;19.67;;;13.02;;
62941;SDS011;49042;47.318;19.874;2024-02-26T13:34:31;16.55;;;11.85;;
62941;SDS011;49042;47.318;19.874;2024-02-26T13:37:35;15.90;;;11.48;;
62941;SDS011;49042;47.318;19.874;2024-02-26T13:40:37;30.60;;;12.80;;
62941;SDS011;49042;47.318;19.874;2024-02-26T13:43:40;14.50;;;11.35;;
62941;SDS011;49042;47.318;19.874;2024-02-26T13:46:42;16.73;;;12.45;;
62941;SDS011;49042;47.318;19.874;2024-02-26T13:49:44;26.75;;;13.77;;
62941;SDS011;49042;47.318;19.874;2024-02-26T13:52:45;18.05;;;11.98;;
62941;SDS011;49042;47.318;19.874;2024-02-26T13:55:47;15.98;;;12.05;;
62941;SDS011;49042;47.318;19.874;2024-02-26T13:58:49;16.85;;;11.15;;
62941;SDS011;49042;47.318;19.874;2024-02-26T14:01:51;18.02;;;11.20;;
62941;SDS011;49042;47.318;19.874;2024-02-26T14:04:54;18.52;;;11.02;;
62941;SDS011;49042;47.318;19.874;2024-02-26T14:07:56;16.40;;;10.70;;
62941;SDS011;49042;47.318;19.874;2024-02-26T14:10:58;15.23;;;11.02;;
62941;SDS011;49042;47.318;19.874;2024-02-26T14:14:01;23.52;;;10.55;;
62941;SDS011;49042;47.318;19.874;2024-02-26T14:17:03;16.00;;;10.32;;
62941;SDS011;49042;47.318;19.874;2024-02-26T14:20:05;16.98;;;11.15;;
62941;SDS011;49042;47.318;19.874;2024-02-26T14:23:09;20.25;;;10.00;;
62941;SDS011;49042;47.318;19.874;2024-02-26T14:26:11;20.15;;;11.32;;
62941;SDS011;49042;47.318;19.874;2024-02-26T14:29:13;20.30;;;10.85;;
62941;SDS011;49042;47.318;19.874;2024-02-26T14:32:15;16.55;;;9.32;;
62941;SDS011;49042;47.318;19.874;2024-02-26T14:35:17;22.17;;;12.65;;
62941;SDS011;49042;47.318;19.874;2024-02-26T14:38:19;19.75;;;11.18;;
62941;SDS011;49042;47.318;19.874;2024-02-26T14:41:21;19.25;;;10.93;;
62941;SDS011;49042;47.318;19.874;2024-02-26T14:44:22;24.67;;;14.25;;
62941;SDS011;49042;47.318;19.874;2024-02-26T14:47:25;17.92;;;11.35;;
62941;SDS011;49042;47.318;19.874;2024-02-26T14:50:27;15.93;;;9.85;;
62941;SDS011;49042;47.318;19.874;2024-02-26T14:53:29;24.17;;;11.30;;
62941;SDS011;49042;47.318;19.874;2024-02-26T14:56:31;18.90;;;8.98;;
62941;SDS011;49042;47.318;19.874;2024-02-26T14:59:33;24.35;;;10.07;;
62941;SDS011;49042;47.318;19.874;2024-02-26T15:02:35;19.67;;;9.85;;
62941;SDS011;49042;47.318;19.874;2024-02-26T15:05:36;23.58;;;12.48;;
62941;SDS011;49042;47.318;19.874;2024-02-26T15:08:38;33.35;;;16.52;;
62941;SDS011;49042;47.318;19.874;2024-02-26T15:11:40;19.20;;;11.20;;
62941;SDS011;49042;47.318;19.874;2024-02-26T15:14:42;28.05;;;13.88;;
62941;SDS011;49042;47.318;19.874;2024-02-26T15:17:44;28.62;;;14.93;;
62941;SDS011;49042;47.318;19.874;2024-02-26T15:20:45;22.10;;;12.82;;
62941;SDS011;49042;47.318;19.874;2024-02-26T15:23:47;25.58;;;14.70;;
62941;SDS011;49042;47.318;19.874;2024-02-26T15:27:05;18.27;;;11.88;;
62941;SDS011;49042;47.318;19.874;2024-02-26T15:30:07;22.42;;;12.20;;
62941;SDS011;49042;47.318;19.874;2024-02-26T15:33:09;26.17;;;12.27;;
62941;SDS011;49042;47.318;19.874;2024-02-26T15:36:11;28.52;;;13.00;;
62941;SDS011;49042;47.318;19.874;2024-02-26T15:39:13;21.40;;;12.57;;
62941;SDS011;49042;47.318;19.874;2024-02-26T15:42:14;16.77;;;11.00;;
62941;SDS011;49042;47.318;19.874;2024-02-26T15:45:16;18.80;;;12.25;;
62941;SDS011;49042;47.318;19.874;2024-02-26T15:48:18;27.77;;;12.77;;
62941;SDS011;49042;47.318;19.874;2024-02-26T15:51:23;21.20;;;12.18;;
62941;SDS011;49042;47.318;19.874;2024-02-26T15:54:28;26.55;;;13.98;;
62941;SDS011;49042;47.318;19.874;2024-02-26T15:57:30;35.65;;;15.45;;
62941;SDS011;49042;47.318;19.874;2024-02-26T16:00:32;28.98;;;17.58;;
62941;SDS011;49042;47.318;19.874;2024-02-26T16:03:40;34.92;;;22.92;;
62941;SDS011;49042;47.318;19.874;2024-02-26T16:06:45;49.63;;;22.62;;
62941;SDS011;49042;47.318;19.874;2024-02-26T16:09:51;36.25;;;21.62;;
62941;SDS011;49042;47.318;19.874;2024-02-26T16:12:54;39.85;;;21.85;;
62941;SDS011;49042;47.318;19.874;2024-02-26T16:15:59;43.10;;;22.42;;
62941;SDS011;49042;47.318;19.874;2024-02-26T16:19:08;38.78;;;24.20;;
62941;SDS011;49042;47.318;19.874;2024-02-26T16:22:13;50.45;;;24.17;;
62941;SDS011;49042;47.318;19.874;2024-02-26T16:25:15;55.65;;;27.17;;
62941;SDS011;49042;47.318;19.874;2024-02-26T16:28:19;42.80;;;24.90;;
62941;SDS011;49042;47.318;19.874;2024-02-26T16:31:23;63.97;;;38.40;;
62941;SDS011;49042;47.318;19.874;2024-02-26T16:34:26;47.88;;;28.10;;
62941;SDS011;49042;47.318;19.874;2024-02-26T16:37:28;35.42;;;23.92;;
62941;SDS011;49042;47.318;19.874;2024-02-26T16:40:31;48.22;;;29.52;;
62941;SDS011;49042;47.318;19.874;2024-02-26T16:43:32;30.70;;;19.50;;
62941;SDS011;49042;47.318;19.874;2024-02-26T16:46:36;33.60;;;20.30;;
62941;SDS011;49042;47.318;19.874;2024-02-26T16:49:38;39.97;;;27.00;;
62941;SDS011;49042;47.318;19.874;2024-02-26T16:52:40;40.45;;;22.05;;
62941;SDS011;49042;47.318;19.874;2024-02-26T16:55:42;27.55;;;18.02;;
62941;SDS011;49042;47.318;19.874;2024-02-26T16:58:43;29.37;;;17.20;;
62941;SDS011;49042;47.318;19.874;2024-02-26T17:01:46;40.55;;;22.23;;
62941;SDS011;49042;47.318;19.874;2024-02-26T17:04:48;41.72;;;23.23;;
62941;SDS011;49042;47.318;19.874;2024-02-26T17:07:50;93.50;;;48.15;;
62941;SDS011;49042;47.318;19.874;2024-02-26T17:10:53;117.62;;;62.38;;
62941;SDS011;49042;47.318;19.874;2024-02-26T17:13:55;127.87;;;61.63;;
62941;SDS011;49042;47.318;19.874;2024-02-26T17:16:57;91.28;;;54.97;;
62941;SDS011;49042;47.318;19.874;2024-02-26T17:20:00;65.85;;;41.17;;
62941;SDS011;49042;47.318;19.874;2024-02-26T17:23:02;50.42;;;25.98;;
62941;SDS011;49042;47.318;19.874;2024-02-26T17:26:04;50.05;;;24.87;;
62941;SDS011;49042;47.318;19.874;2024-02-26T17:29:08;41.35;;;22.77;;
62941;SDS011;49042;47.318;19.874;2024-02-26T17:32:11;40.03;;;21.52;;
62941;SDS011;49042;47.318;19.874;2024-02-26T17:35:16;30.35;;;19.15;;